Time;durP1;ratioP1;P1;durP2;ratioP2;P2;SDS_P1;SDS_P2;PMS_P1;PMS_P2;Temp;Humidity;BMP_temperature;BMP_pressure;BME280_temperature;BME280_humidity;BME280_pressure;Samples;Min_cycle;Max_cycle;Signal;HPM_P1;HPM_P2
2024/01/06 00:00:50;;;;;;;;;;;18.00;65.80;;;;;;5036437;28;1490;-68
2024/01/06 00:03:16;;;;;;;;;;;18.00;65.80;;;;;;5039227;28;1525;-68
2024/01/06 00:05:41;;;;;;;;;;;18.00;65.80;;;;;;5037966;28;1423;-68
2024/01/06 00:08:07;;;;;;;;;;;18.00;65.80;;;;;;5041143;28;1324;-68
2024/01/06 00:10:32;;;;;;;;;;;18.00;65.80;;;;;;5041233;28;1925;-68
2024/01/06 00:12:57;;;;;;;;;;;18.00;65.80;;;;;;5038289;28;1347;-68
2024/01/06 00:15:23;;;;;;;;;;;18.00;65.80;;;;;;5039204;28;1410;-68
2024/01/06 00:17:49;;;;;;;;;;;18.00;65.90;;;;;;5036895;28;1383;-68
2024/01/06 00:20:14;;;;;;;;;;;18.00;65.80;;;;;;5039145;28;1707;-68
2024/01/06 00:22:41;;;;;;;;;;;18.00;65.90;;;;;;5040986;28;1304;-68
2024/01/06 00:25:07;;;;;;;;;;;18.00;65.90;;;;;;5040499;28;1323;-68
2024/01/06 00:27:32;;;;;;;;;;;18.00;65.90;;;;;;5039826;28;1471;-68
2024/01/06 00:29:57;;;;;;;;;;;18.00;65.90;;;;;;5038320;28;1894;-67
2024/01/06 00:32:23;;;;;;;;;;;18.00;65.90;;;;;;5043369;28;1512;-67
2024/01/06 00:34:48;;;;;;;;;;;18.00;65.90;;;;;;5036963;28;1329;-67
2024/01/06 00:37:14;;;;;;;;;;;18.00;65.90;;;;;;5039696;28;1197;-67
2024/01/06 00:39:39;;;;;;;;;;;17.90;65.80;;;;;;5039841;28;1362;-67
2024/01/06 00:42:05;;;;;;;;;;;18.00;65.90;;;;;;5039882;28;1572;-67
2024/01/06 00:44:30;;;;;;;;;;;18.00;65.90;;;;;;5072932;28;1709;-66
2024/01/06 00:46:56;;;;;;;;;;;18.00;65.90;;;;;;5041910;28;1341;-68
2024/01/06 00:49:21;;;;;;;;;;;18.00;65.90;;;;;;5038285;28;1288;-67
2024/01/06 00:51:47;;;;;;;;;;;17.90;65.90;;;;;;5037988;28;1957;-66
2024/01/06 00:54:12;;;;;;;;;;;18.00;66.70;;;;;;5039138;28;1367;-68
2024/01/06 00:56:38;;;;;;;;;;;17.90;66.70;;;;;;5038021;28;1221;-69
2024/01/06 00:59:03;;;;;;;;;;;18.00;66.00;;;;;;5037014;28;1458;-68
2024/01/06 01:01:29;;;;;;;;;;;17.90;65.90;;;;;;5038779;28;1423;-68
2024/01/06 01:03:54;;;;;;;;;;;17.90;65.90;;;;;;5037147;28;1579;-68
2024/01/06 01:06:20;;;;;;;;;;;17.90;66.00;;;;;;5039655;28;1492;-68
2024/01/06 01:08:45;;;;;;;;;;;17.90;65.90;;;;;;5038034;28;1635;-69
2024/01/06 01:11:11;;;;;;;;;;;17.90;65.90;;;;;;5039318;28;1906;-68
2024/01/06 01:13:36;;;;;;;;;;;17.90;66.00;;;;;;5035884;28;1724;-67
2024/01/06 01:16:02;;;;;;;;;;;17.90;66.00;;;;;;5038567;28;1350;-67
2024/01/06 01:18:28;;;;;;;;;;;17.90;66.00;;;;;;5039928;28;1366;-68
2024/01/06 01:20:53;;;;;;;;;;;17.90;66.00;;;;;;5039329;28;1523;-68
2024/01/06 01:23:19;;;;;;;;;;;17.90;66.00;;;;;;5039262;28;1295;-68
2024/01/06 01:25:44;;;;;;;;;;;17.90;66.00;;;;;;5038989;28;1263;-67
2024/01/06 01:28:10;;;;;;;;;;;17.90;66.00;;;;;;5042602;28;1387;-67
2024/01/06 01:30:35;;;;;;;;;;;17.90;66.00;;;;;;5042541;28;1906;-68
2024/01/06 01:33:01;;;;;;;;;;;17.90;66.00;;;;;;5043048;28;1382;-68
2024/01/06 01:35:26;;;;;;;;;;;17.90;66.10;;;;;;5041268;28;1621;-68
2024/01/06 01:37:51;;;;;;;;;;;17.90;66.00;;;;;;5041569;28;1340;-68
2024/01/06 01:40:17;;;;;;;;;;;17.90;66.10;;;;;;5037612;28;1340;-68
2024/01/06 01:42:43;;;;;;;;;;;17.90;66.00;;;;;;5043484;28;1730;-68
2024/01/06 01:45:08;;;;;;;;;;;17.90;66.00;;;;;;5045271;28;1413;-67
2024/01/06 01:47:34;;;;;;;;;;;17.90;66.00;;;;;;5043332;28;1250;-66
2024/01/06 01:49:59;;;;;;;;;;;17.90;66.00;;;;;;5041398;28;1918;-67
2024/01/06 01:52:25;;;;;;;;;;;17.90;66.10;;;;;;5049319;28;1363;-68
2024/01/06 01:54:50;;;;;;;;;;;17.90;66.10;;;;;;5047049;28;1249;-68
2024/01/06 01:57:15;;;;;;;;;;;17.90;66.00;;;;;;5040587;28;1286;-68
2024/01/06 01:59:41;;;;;;;;;;;17.90;66.10;;;;;;5042212;28;1426;-68
2024/01/06 02:02:07;;;;;;;;;;;17.90;66.10;;;;;;5037176;28;1533;-68
2024/01/06 02:04:32;;;;;;;;;;;17.90;66.10;;;;;;5049335;28;1490;-68
2024/01/06 02:06:58;;;;;;;;;;;17.90;66.10;;;;;;5073248;28;1592;-68
2024/01/06 02:09:29;;;;;;;;;;;17.90;66.10;;;;;;5042277;28;1346;-67
2024/01/06 02:11:56;;;;;;;;;;;17.90;66.10;;;;;;5037248;28;1906;-67
2024/01/06 02:14:22;;;;;;;;;;;17.90;66.10;;;;;;5041522;28;1571;-67
2024/01/06 02:16:47;;;;;;;;;;;17.90;66.10;;;;;;5040869;28;1351;-67
2024/01/06 02:19:13;;;;;;;;;;;17.90;66.10;;;;;;5040817;28;1747;-67
2024/01/06 02:21:40;;;;;;;;;;;17.90;66.10;;;;;;5070536;28;861;-67
2024/01/06 02:24:06;;;;;;;;;;;17.90;66.10;;;;;;5041779;28;1429;-68
2024/01/06 02:26:31;;;;;;;;;;;17.90;66.10;;;;;;5044861;28;1790;-67
2024/01/06 02:28:57;;;;;;;;;;;17.80;66.10;;;;;;5043454;28;1323;-67
2024/01/06 02:31:22;;;;;;;;;;;17.90;66.10;;;;;;5042773;28;1963;-67
2024/01/06 02:33:48;;;;;;;;;;;17.90;66.20;;;;;;5044584;28;1262;-67
2024/01/06 02:36:13;;;;;;;;;;;17.90;66.10;;;;;;5031970;28;1645;-66
2024/01/06 02:38:38;;;;;;;;;;;17.90;66.10;;;;;;5039335;28;1328;-67
2024/01/06 02:41:04;;;;;;;;;;;17.90;66.10;;;;;;5037981;28;1429;-67
2024/01/06 02:43:29;;;;;;;;;;;17.90;66.10;;;;;;5039186;28;1558;-67
2024/01/06 02:45:55;;;;;;;;;;;17.90;66.20;;;;;;5041704;28;931;-67
2024/01/06 02:48:20;;;;;;;;;;;17.90;66.20;;;;;;5042215;28;1364;-67
2024/01/06 02:50:46;;;;;;;;;;;17.90;66.20;;;;;;5039747;28;1890;-68
2024/01/06 02:53:12;;;;;;;;;;;17.80;66.10;;;;;;5040092;28;1593;-67
2024/01/06 02:55:38;;;;;;;;;;;17.90;66.20;;;;;;5041929;28;1469;-68
2024/01/06 02:58:03;;;;;;;;;;;17.80;66.10;;;;;;5041416;28;1369;-68
2024/01/06 03:00:29;;;;;;;;;;;17.80;66.10;;;;;;5038956;28;1395;-68
2024/01/06 03:02:54;;;;;;;;;;;17.90;66.20;;;;;;5040222;28;1576;-68
2024/01/06 03:05:20;;;;;;;;;;;17.90;66.20;;;;;;5041052;28;1546;-68
2024/01/06 03:07:45;;;;;;;;;;;17.90;66.20;;;;;;5038254;28;1300;-68
2024/01/06 03:10:11;;;;;;;;;;;17.90;66.20;;;;;;5025785;28;1915;-68
2024/01/06 03:12:36;;;;;;;;;;;17.80;66.20;;;;;;5038644;28;1465;-69
2024/01/06 03:15:02;;;;;;;;;;;17.80;66.20;;;;;;5040794;28;1333;-69
2024/01/06 03:17:28;;;;;;;;;;;17.90;66.20;;;;;;5040975;28;1362;-70
2024/01/06 03:19:54;;;;;;;;;;;17.90;66.20;;;;;;5040831;28;1223;-70
2024/01/06 03:22:19;;;;;;;;;;;17.90;66.20;;;;;;5036698;28;1439;-70
2024/01/06 03:24:45;;;;;;;;;;;17.90;66.20;;;;;;5040140;28;1210;-69
2024/01/06 03:27:10;;;;;;;;;;;17.90;66.20;;;;;;5040112;28;1503;-69
2024/01/06 03:29:36;;;;;;;;;;;17.90;66.20;;;;;;5040485;28;1041;-69
2024/01/06 03:32:01;;;;;;;;;;;17.80;66.10;;;;;;5044700;28;2355;-66
2024/01/06 03:34:27;;;;;;;;;;;17.90;66.20;;;;;;5043136;28;1263;-66
2024/01/06 03:36:52;;;;;;;;;;;17.90;66.20;;;;;;5041243;28;1668;-67
2024/01/06 03:39:17;;;;;;;;;;;17.80;66.10;;;;;;5040976;28;1425;-67
2024/01/06 03:41:43;;;;;;;;;;;17.80;66.10;;;;;;5038530;28;1557;-67
2024/01/06 03:44:08;;;;;;;;;;;17.80;66.10;;;;;;5038706;28;1443;-67
2024/01/06 03:46:34;;;;;;;;;;;17.80;66.10;;;;;;5042661;28;1445;-67
2024/01/06 03:48:59;;;;;;;;;;;17.80;66.10;;;;;;5042689;28;1714;-68
2024/01/06 03:51:25;;;;;;;;;;;17.80;66.20;;;;;;5038145;28;1967;-68
2024/01/06 03:53:50;;;;;;;;;;;17.80;66.20;;;;;;5036256;28;1339;-68
2024/01/06 03:56:16;;;;;;;;;;;17.80;66.20;;;;;;5040372;28;1387;-69
2024/01/06 03:58:41;;;;;;;;;;;17.80;66.20;;;;;;5038111;28;1702;-68
2024/01/06 04:01:07;;;;;;;;;;;17.80;66.20;;;;;;5038083;28;1454;-68
2024/01/06 04:03:32;;;;;;;;;;;17.80;66.10;;;;;;5040993;28;1481;-69
2024/01/06 04:05:58;;;;;;;;;;;17.80;66.20;;;;;;5040320;28;1458;-69
2024/01/06 04:08:23;;;;;;;;;;;17.80;66.20;;;;;;5038856;28;1243;-69
2024/01/06 04:10:49;;;;;;;;;;;17.80;66.20;;;;;;5039683;28;1964;-69
2024/01/06 04:13:15;;;;;;;;;;;17.80;66.20;;;;;;5038695;28;1359;-69
2024/01/06 04:15:40;;;;;;;;;;;17.80;66.20;;;;;;5040854;28;999;-68
2024/01/06 04:18:06;;;;;;;;;;;17.80;66.20;;;;;;5038700;28;867;-68
2024/01/06 04:20:31;;;;;;;;;;;17.80;66.20;;;;;;5037352;28;863;-68
2024/01/06 04:22:57;;;;;;;;;;;17.80;66.20;;;;;;5038917;28;1296;-68
2024/01/06 04:25:22;;;;;;;;;;;17.80;66.20;;;;;;5072636;28;1569;-68
2024/01/06 04:27:48;;;;;;;;;;;17.80;66.20;;;;;;5038387;28;1535;-69
2024/01/06 04:30:14;;;;;;;;;;;17.80;66.20;;;;;;5039052;28;1905;-68
2024/01/06 04:32:40;;;;;;;;;;;17.80;66.20;;;;;;5037680;28;1300;-68
2024/01/06 04:35:05;;;;;;;;;;;17.80;66.20;;;;;;5040743;28;1248;-67
2024/01/06 04:37:31;;;;;;;;;;;17.80;66.20;;;;;;5039219;28;1459;-68
2024/01/06 04:39:57;;;;;;;;;;;17.80;66.20;;;;;;5036627;28;1250;-69
2024/01/06 04:42:22;;;;;;;;;;;17.80;66.20;;;;;;5047312;28;1416;-69
2024/01/06 04:44:48;;;;;;;;;;;17.80;66.20;;;;;;5039146;28;1585;-68
2024/01/06 04:47:13;;;;;;;;;;;17.80;66.20;;;;;;5038869;28;1493;-68
2024/01/06 04:49:39;;;;;;;;;;;17.80;66.20;;;;;;5040153;28;1253;-68
2024/01/06 04:52:04;;;;;;;;;;;17.80;66.20;;;;;;5037534;28;1906;-68
2024/01/06 04:54:30;;;;;;;;;;;17.80;66.20;;;;;;5039602;28;1401;-68
2024/01/06 04:56:56;;;;;;;;;;;17.80;66.20;;;;;;5039106;28;1586;-68
2024/01/06 04:59:21;;;;;;;;;;;17.80;66.20;;;;;;5070526;28;1449;-68
2024/01/06 05:01:47;;;;;;;;;;;17.80;66.20;;;;;;5034474;28;1407;-68
2024/01/06 05:04:12;;;;;;;;;;;17.80;66.20;;;;;;5022053;28;1431;-67
2024/01/06 05:06:37;;;;;;;;;;;17.80;67.00;;;;;;5036109;28;1243;-66
2024/01/06 05:09:03;;;;;;;;;;;17.80;66.20;;;;;;5037642;28;1439;-66
2024/01/06 05:11:29;;;;;;;;;;;17.80;66.20;;;;;;5036713;28;1922;-67
2024/01/06 05:13:54;;;;;;;;;;;17.80;66.20;;;;;;5035109;28;1358;-67
2024/01/06 05:16:20;;;;;;;;;;;17.80;66.10;;;;;;5045223;28;1586;-67
2024/01/06 05:18:45;;;;;;;;;;;17.90;66.10;;;;;;5032228;28;1262;-67
2024/01/06 05:21:11;;;;;;;;;;;17.90;66.10;;;;;;5039072;28;1473;-67
2024/01/06 05:23:36;;;;;;;;;;;17.80;65.90;;;;;;5040048;28;1363;-67
2024/01/06 05:26:02;;;;;;;;;;;17.90;65.90;;;;;;5039936;28;1406;-67
2024/01/06 05:28:27;;;;;;;;;;;17.90;65.70;;;;;;5038500;28;1229;-67
2024/01/06 05:30:53;;;;;;;;;;;18.00;65.70;;;;;;5039391;28;1975;-69
2024/01/06 05:33:18;;;;;;;;;;;18.00;65.70;;;;;;5035181;28;1910;-67
2024/01/06 05:35:43;;;;;;;;;;;18.00;65.50;;;;;;5034307;28;1923;-67
2024/01/06 05:38:09;;;;;;;;;;;18.00;65.40;;;;;;5039880;28;1270;-67
2024/01/06 05:40:34;;;;;;;;;;;18.00;65.30;;;;;;5038120;28;1368;-66
2024/01/06 05:43:00;;;;;;;;;;;18.10;65.30;;;;;;5036651;28;1382;-66
2024/01/06 05:45:25;;;;;;;;;;;18.10;65.20;;;;;;5038617;28;1558;-66
2024/01/06 05:47:51;;;;;;;;;;;18.10;65.20;;;;;;5036055;28;1493;-66
2024/01/06 05:50:16;;;;;;;;;;;18.10;65.10;;;;;;5039467;28;1961;-66
2024/01/06 05:52:42;;;;;;;;;;;18.10;65.00;;;;;;5037067;28;1289;-66
2024/01/06 05:55:08;;;;;;;;;;;18.10;65.00;;;;;;5036958;28;1242;-67
2024/01/06 05:57:34;;;;;;;;;;;18.10;64.90;;;;;;5038038;28;1611;-66
2024/01/06 05:59:59;;;;;;;;;;;18.20;64.90;;;;;;5036648;28;1511;-67
2024/01/06 06:02:25;;;;;;;;;;;18.10;64.90;;;;;;5070054;28;1354;-67
2024/01/06 06:04:51;;;;;;;;;;;18.20;64.90;;;;;;5036195;28;1514;-67
2024/01/06 06:07:16;;;;;;;;;;;18.20;64.80;;;;;;5036127;28;1335;-67
2024/01/06 06:09:42;;;;;;;;;;;18.20;64.80;;;;;;5038450;28;1316;-67
2024/01/06 06:12:07;;;;;;;;;;;18.20;64.80;;;;;;5036531;28;1946;-67
2024/01/06 06:14:33;;;;;;;;;;;18.20;64.70;;;;;;5039270;28;1238;-66
2024/01/06 06:16:58;;;;;;;;;;;18.20;64.70;;;;;;5038916;28;1069;-65
2024/01/06 06:19:24;;;;;;;;;;;18.20;64.70;;;;;;5037911;28;1638;-65
2024/01/06 06:21:49;;;;;;;;;;;18.20;64.70;;;;;;5038303;28;1350;-66
2024/01/06 06:24:15;;;;;;;;;;;18.20;64.70;;;;;;5040522;28;1300;-67
2024/01/06 06:26:40;;;;;;;;;;;18.20;64.60;;;;;;5039727;28;1299;-66
2024/01/06 06:29:06;;;;;;;;;;;18.20;64.60;;;;;;5039898;28;1525;-65
2024/01/06 06:31:31;;;;;;;;;;;18.20;64.60;;;;;;5040325;28;1921;-66
2024/01/06 06:33:57;;;;;;;;;;;18.20;64.60;;;;;;5042782;28;1593;-66
2024/01/06 06:36:22;;;;;;;;;;;18.20;64.60;;;;;;5040039;28;1475;-66
2024/01/06 06:38:48;;;;;;;;;;;18.20;64.60;;;;;;5040093;28;1510;-67
2024/01/06 06:41:13;;;;;;;;;;;18.20;64.60;;;;;;5073523;28;1517;-68
2024/01/06 06:43:38;;;;;;;;;;;18.20;64.60;;;;;;5041175;28;1538;-66
2024/01/06 06:46:04;;;;;;;;;;;18.20;64.70;;;;;;5041336;28;1510;-67
2024/01/06 06:48:29;;;;;;;;;;;18.20;64.70;;;;;;5043207;28;1495;-68
2024/01/06 06:50:55;;;;;;;;;;;18.20;64.70;;;;;;5071275;28;1906;-65
2024/01/06 06:53:20;;;;;;;;;;;18.20;64.70;;;;;;5042765;28;1457;-67
2024/01/06 06:55:46;;;;;;;;;;;18.20;64.70;;;;;;5041018;28;1451;-68
2024/01/06 06:58:12;;;;;;;;;;;18.20;64.70;;;;;;5039087;28;1307;-68
2024/01/06 07:00:38;;;;;;;;;;;18.20;64.70;;;;;;5043175;28;1517;-68
2024/01/06 07:03:04;;;;;;;;;;;18.20;65.50;;;;;;5038984;28;1558;-68
2024/01/06 07:05:29;;;;;;;;;;;18.10;64.80;;;;;;5043000;28;1582;-69
2024/01/06 07:07:55;;;;;;;;;;;18.10;64.80;;;;;;5040705;28;1519;-69
2024/01/06 07:10:20;;;;;;;;;;;18.10;64.80;;;;;;5048256;28;1963;-69
2024/01/06 07:12:46;;;;;;;;;;;18.10;64.80;;;;;;5039503;28;1285;-68
2024/01/06 07:15:11;;;;;;;;;;;18.10;64.80;;;;;;5040428;28;1614;-66
2024/01/06 07:17:38;;;;;;;;;;;18.10;64.80;;;;;;5045305;28;1083;-67
2024/01/06 07:20:04;;;;;;;;;;;18.10;64.80;;;;;;5038489;28;1262;-68
2024/01/06 07:22:30;;;;;;;;;;;18.10;64.90;;;;;;5035771;28;1371;-67
2024/01/06 07:24:55;;;;;;;;;;;18.10;64.90;;;;;;5041024;28;1454;-66
2024/01/06 07:27:21;;;;;;;;;;;18.10;64.90;;;;;;5064928;28;1285;-66
2024/01/06 07:29:46;;;;;;;;;;;18.10;65.00;;;;;;5045286;28;1550;-68
2024/01/06 07:32:11;;;;;;;;;;;18.10;65.00;;;;;;5040861;28;1898;-69
2024/01/06 07:34:37;;;;;;;;;;;18.10;65.00;;;;;;5040613;28;1836;-68
2024/01/06 07:37:02;;;;;;;;;;;18.10;65.00;;;;;;5038516;28;1233;-68
2024/01/06 07:39:28;;;;;;;;;;;18.10;65.00;;;;;;5034975;28;1561;-68
2024/01/06 07:41:53;;;;;;;;;;;18.10;65.10;;;;;;5039935;28;1577;-66
2024/01/06 07:44:24;;;;;;;;;;;18.10;65.00;;;;;;5041840;28;1358;-66
2024/01/06 07:46:50;;;;;;;;;;;18.10;65.00;;;;;;5039658;28;1353;-67
2024/01/06 07:49:15;;;;;;;;;;;18.10;65.00;;;;;;5040415;28;1333;-67
2024/01/06 07:51:41;;;;;;;;;;;18.10;64.90;;;;;;5039427;28;1949;-68
2024/01/06 07:54:08;;;;;;;;;;;18.10;64.90;;;;;;5041567;28;1271;-67
2024/01/06 07:56:34;;;;;;;;;;;18.10;64.90;;;;;;5037892;28;1743;-69
2024/01/06 07:59:00;;;;;;;;;;;18.10;64.80;;;;;;5040799;28;1523;-68
2024/01/06 08:01:26;;;;;;;;;;;18.10;64.80;;;;;;5038270;28;1558;-68
2024/01/06 08:03:51;;;;;;;;;;;18.10;64.70;;;;;;5041488;28;1413;-69
2024/01/06 08:06:17;;;;;;;;;;;18.20;64.70;;;;;;5037071;28;1591;-69
2024/01/06 08:08:42;;;;;;;;;;;18.20;64.70;;;;;;5038873;28;2098;-71
2024/01/06 08:11:07;;;;;;;;;;;18.20;64.70;;;;;;5039982;28;1906;-69
2024/01/06 08:13:33;;;;;;;;;;;18.20;64.70;;;;;;5035135;28;1471;-70
2024/01/06 08:15:59;;;;;;;;;;;18.20;64.60;;;;;;5034548;28;2123;-69
2024/01/06 08:18:24;;;;;;;;;;;18.20;64.60;;;;;;5037567;28;1977;-69
2024/01/06 08:20:50;;;;;;;;;;;18.20;64.50;;;;;;5036357;28;2305;-69
2024/01/06 08:23:16;;;;;;;;;;;18.20;65.30;;;;;;5037252;28;1486;-69
2024/01/06 08:25:41;;;;;;;;;;;18.20;64.50;;;;;;5038857;28;1305;-69
2024/01/06 08:28:07;;;;;;;;;;;18.20;64.50;;;;;;5038483;28;1280;-69
2024/01/06 08:30:33;;;;;;;;;;;18.20;64.50;;;;;;5039103;28;1898;-69
2024/01/06 08:32:59;;;;;;;;;;;18.20;64.50;;;;;;5037372;28;1500;-70
2024/01/06 08:35:25;;;;;;;;;;;18.20;64.40;;;;;;5071840;28;1259;-70
2024/01/06 08:37:50;;;;;;;;;;;18.30;64.40;;;;;;5038999;28;1320;-69
2024/01/06 08:40:16;;;;;;;;;;;18.30;64.40;;;;;;5038228;28;1423;-70
2024/01/06 08:42:43;;;;;;;;;;;18.30;64.40;;;;;;5053579;28;1376;-70
2024/01/06 08:45:09;;;;;;;;;;;18.30;64.40;;;;;;5035816;28;1455;-70
2024/01/06 08:47:34;;;;;;;;;;;18.30;64.40;;;;;;5036310;28;1521;-70
2024/01/06 08:50:00;;;;;;;;;;;18.30;64.30;;;;;;5017037;28;2026;-70
2024/01/06 08:52:25;;;;;;;;;;;18.30;64.40;;;;;;5069694;28;1285;-70
2024/01/06 08:54:51;;;;;;;;;;;18.30;64.30;;;;;;5038578;28;1261;-70
2024/01/06 08:57:16;;;;;;;;;;;18.30;64.30;;;;;;5039604;28;1249;-70
2024/01/06 08:59:42;;;;;;;;;;;18.30;64.30;;;;;;5039950;28;1344;-70
2024/01/06 09:02:08;;;;;;;;;;;18.30;64.20;;;;;;5035945;28;1616;-70
2024/01/06 09:04:33;;;;;;;;;;;18.30;64.20;;;;;;5037472;28;1325;-70
2024/01/06 09:06:59;;;;;;;;;;;18.30;64.20;;;;;;5037331;28;1051;-70
2024/01/06 09:09:24;;;;;;;;;;;18.30;64.20;;;;;;5065854;28;1799;-70
2024/01/06 09:11:50;;;;;;;;;;;18.30;64.20;;;;;;5067104;28;2097;-70
2024/01/06 09:14:18;;;;;;;;;;;18.30;64.20;;;;;;5040731;28;2165;-69
2024/01/06 09:16:44;;;;;;;;;;;18.30;64.20;;;;;;5069152;28;1699;-69
2024/01/06 09:19:09;;;;;;;;;;;18.30;64.10;;;;;;5036366;28;1703;-69
2024/01/06 09:21:35;;;;;;;;;;;18.30;64.10;;;;;;5036834;28;1296;-69
2024/01/06 09:24:05;;;;;;;;;;;18.30;64.10;;;;;;5037006;28;1388;-69
2024/01/06 09:26:34;;;;;;;;;;;18.30;64.10;;;;;;5036407;28;1470;-69
2024/01/06 09:29:00;;;;;;;;;;;18.30;64.10;;;;;;5037262;28;1295;-69
2024/01/06 09:31:25;;;;;;;;;;;18.30;64.10;;;;;;5040676;28;1960;-68
2024/01/06 09:33:51;;;;;;;;;;;18.30;64.10;;;;;;5067890;28;1482;-69
2024/01/06 09:36:17;;;;;;;;;;;18.30;64.00;;;;;;5036763;28;1433;-69
2024/01/06 09:38:43;;;;;;;;;;;18.30;64.00;;;;;;5066992;28;1361;-69
2024/01/06 09:41:08;;;;;;;;;;;18.30;64.00;;;;;;5068888;28;1205;-69
2024/01/06 09:43:34;;;;;;;;;;;18.30;64.00;;;;;;5038724;28;1387;-69
2024/01/06 09:46:07;;;;;;;;;;;18.30;64.00;;;;;;5037678;28;1304;-69
2024/01/06 09:48:33;;;;;;;;;;;18.30;64.00;;;;;;5034767;28;1262;-69
2024/01/06 09:51:01;;;;;;;;;;;18.30;64.00;;;;;;5070225;28;1902;-69
2024/01/06 09:53:27;;;;;;;;;;;18.30;64.00;;;;;;5038728;28;1573;-68
2024/01/06 09:55:54;;;;;;;;;;;18.30;64.00;;;;;;5054678;28;1321;-69
2024/01/06 09:58:19;;;;;;;;;;;18.30;64.00;;;;;;5038081;28;1306;-69
2024/01/06 10:00:45;;;;;;;;;;;18.30;64.00;;;;;;5035646;28;1490;-69
2024/01/06 10:03:10;;;;;;;;;;;18.30;64.00;;;;;;5061336;28;1387;-69
2024/01/06 10:05:36;;;;;;;;;;;18.30;64.00;;;;;;5022128;28;1214;-69
2024/01/06 10:08:04;;;;;;;;;;;18.30;64.00;;;;;;5040249;28;1356;-68
2024/01/06 10:10:29;;;;;;;;;;;18.30;64.00;;;;;;5042436;28;1934;-69
2024/01/06 10:12:55;;;;;;;;;;;18.30;64.00;;;;;;5041996;28;1333;-69
2024/01/06 10:15:20;;;;;;;;;;;18.30;64.00;;;;;;5038766;28;1613;-69
2024/01/06 10:17:46;;;;;;;;;;;18.30;64.00;;;;;;5049385;28;1341;-69
2024/01/06 10:20:12;;;;;;;;;;;18.30;64.00;;;;;;5043932;28;1422;-69
2024/01/06 10:22:37;;;;;;;;;;;18.30;64.00;;;;;;5043705;28;1378;-69
2024/01/06 10:25:06;;;;;;;;;;;18.30;64.00;;;;;;5045992;28;1337;-69
2024/01/06 10:27:33;;;;;;;;;;;18.30;64.00;;;;;;5045734;28;1406;-69
2024/01/06 10:29:59;;;;;;;;;;;18.30;64.00;;;;;;5039974;28;2219;-68
2024/01/06 10:32:28;;;;;;;;;;;18.30;64.10;;;;;;5039414;28;1964;-69
2024/01/06 10:34:54;;;;;;;;;;;18.30;64.10;;;;;;5070517;28;1323;-69
2024/01/06 10:37:20;;;;;;;;;;;18.30;64.10;;;;;;5041775;28;1465;-69
2024/01/06 10:39:45;;;;;;;;;;;18.30;64.10;;;;;;5041407;28;1533;-69
2024/01/06 10:42:12;;;;;;;;;;;18.30;64.10;;;;;;5040043;28;1533;-69
2024/01/06 10:44:38;;;;;;;;;;;18.30;64.10;;;;;;5048411;28;1423;-69
2024/01/06 10:47:03;;;;;;;;;;;18.30;64.10;;;;;;5048828;28;1559;-69
2024/01/06 10:49:29;;;;;;;;;;;18.30;64.10;;;;;;5038648;28;1487;-69
2024/01/06 10:51:55;;;;;;;;;;;18.30;64.10;;;;;;5040380;28;1906;-69
2024/01/06 10:54:20;;;;;;;;;;;18.30;64.10;;;;;;5039441;28;1457;-68
2024/01/06 10:56:46;;;;;;;;;;;18.30;64.10;;;;;;5042049;28;1374;-68
2024/01/06 10:59:11;;;;;;;;;;;18.30;64.10;;;;;;5074132;28;1389;-68
2024/01/06 11:01:37;;;;;;;;;;;18.30;64.10;;;;;;5046060;28;1376;-68
2024/01/06 11:04:06;;;;;;;;;;;18.30;64.10;;;;;;5047931;28;1542;-68
2024/01/06 11:06:31;;;;;;;;;;;18.30;64.10;;;;;;5035334;28;1353;-68
2024/01/06 11:09:11;;;;;;;;;;;18.30;64.10;;;;;;5034581;28;1527;-68
2024/01/06 11:11:39;;;;;;;;;;;18.30;64.10;;;;;;5068552;28;2034;-67
2024/01/06 11:14:24;;;;;;;;;;;18.30;64.10;;;;;;5071417;28;1327;-66
2024/01/06 11:16:49;;;;;;;;;;;18.30;64.10;;;;;;5042010;28;1486;-67
2024/01/06 11:19:38;;;;;;;;;;;18.30;64.10;;;;;;5041576;28;1292;-66
2024/01/06 11:22:28;;;;;;;;;;;18.30;64.10;;;;;;5040776;28;1419;-66
2024/01/06 11:24:57;;;;;;;;;;;18.30;64.10;;;;;;5042077;28;1610;-68
2024/01/06 11:27:23;;;;;;;;;;;18.30;64.10;;;;;;5038433;28;1464;-68
2024/01/06 11:29:50;;;;;;;;;;;18.30;64.10;;;;;;5039312;28;2086;-68
2024/01/06 11:32:17;;;;;;;;;;;18.30;64.10;;;;;;5037868;28;1906;-68
2024/01/06 11:34:43;;;;;;;;;;;18.30;64.10;;;;;;5042076;28;1749;-68
2024/01/06 11:37:09;;;;;;;;;;;18.30;64.10;;;;;;5040488;28;1533;-68
2024/01/06 11:39:35;;;;;;;;;;;18.30;64.10;;;;;;5074936;28;1410;-67
2024/01/06 11:42:01;;;;;;;;;;;18.30;64.10;;;;;;5039857;28;1141;-67
2024/01/06 11:44:27;;;;;;;;;;;18.30;64.10;;;;;;5032081;28;1395;-67
2024/01/06 11:46:54;;;;;;;;;;;18.30;64.10;;;;;;5038567;28;1325;-67
2024/01/06 11:49:20;;;;;;;;;;;18.30;64.10;;;;;;5038274;28;1601;-67
2024/01/06 11:51:46;;;;;;;;;;;18.30;64.10;;;;;;5036998;28;1909;-67
2024/01/06 11:54:12;;;;;;;;;;;18.30;64.10;;;;;;5062262;28;1578;-67
2024/01/06 11:56:38;;;;;;;;;;;18.30;64.10;;;;;;5039757;28;1337;-67
2024/01/06 11:59:03;;;;;;;;;;;18.30;64.10;;;;;;5037288;28;1632;-67
2024/01/06 12:01:36;;;;;;;;;;;18.30;64.10;;;;;;5035875;28;1680;-67
2024/01/06 12:04:03;;;;;;;;;;;18.30;64.00;;;;;;5039979;28;1411;-67
2024/01/06 12:06:29;;;;;;;;;;;18.30;64.00;;;;;;5071003;28;1219;-67
2024/01/06 12:09:03;;;;;;;;;;;18.30;64.00;;;;;;5038937;28;1284;-67
2024/01/06 12:11:28;;;;;;;;;;;18.30;64.00;;;;;;5039840;28;2015;-67
2024/01/06 12:13:54;;;;;;;;;;;18.30;64.00;;;;;;5071283;28;1486;-67
2024/01/06 12:16:19;;;;;;;;;;;18.30;64.00;;;;;;5042064;28;1542;-67
2024/01/06 12:18:44;;;;;;;;;;;18.30;64.00;;;;;;5042338;28;1220;-67
2024/01/06 12:21:10;;;;;;;;;;;18.30;64.00;;;;;;5038937;28;991;-67
2024/01/06 12:23:36;;;;;;;;;;;18.30;64.00;;;;;;5036348;28;1352;-67
2024/01/06 12:26:02;;;;;;;;;;;18.30;64.00;;;;;;5037896;28;1398;-68
2024/01/06 12:28:27;;;;;;;;;;;18.30;64.00;;;;;;5041543;28;1369;-68
2024/01/06 12:30:53;;;;;;;;;;;18.30;64.00;;;;;;5035928;28;1921;-68
2024/01/06 12:33:19;;;;;;;;;;;18.30;63.90;;;;;;5039739;28;1846;-68
2024/01/06 12:35:44;;;;;;;;;;;18.30;63.90;;;;;;5038693;28;2123;-68
2024/01/06 12:38:10;;;;;;;;;;;18.30;63.90;;;;;;5038681;28;1215;-68
2024/01/06 12:40:36;;;;;;;;;;;18.40;64.00;;;;;;5038598;28;1034;-68
2024/01/06 12:43:02;;;;;;;;;;;18.40;64.00;;;;;;5039252;28;1433;-68
2024/01/06 12:45:28;;;;;;;;;;;18.30;64.00;;;;;;5039590;28;1365;-68
2024/01/06 12:47:54;;;;;;;;;;;18.40;64.00;;;;;;5039789;28;1364;-68
2024/01/06 12:50:19;;;;;;;;;;;18.30;63.90;;;;;;5038285;28;1902;-69
2024/01/06 12:52:45;;;;;;;;;;;18.40;64.00;;;;;;5030524;28;1323;-68
2024/01/06 12:55:11;;;;;;;;;;;18.40;64.00;;;;;;5038421;28;1410;-68
2024/01/06 12:57:36;;;;;;;;;;;18.40;63.90;;;;;;5035676;28;1694;-69
2024/01/06 13:00:03;;;;;;;;;;;18.40;63.90;;;;;;5038412;28;1342;-68
2024/01/06 13:02:29;;;;;;;;;;;18.40;63.90;;;;;;5037606;28;1300;-68
2024/01/06 13:04:55;;;;;;;;;;;18.40;63.90;;;;;;5037864;28;1432;-68
2024/01/06 13:07:22;;;;;;;;;;;18.40;64.70;;;;;;5042361;28;1419;-68
2024/01/06 13:09:47;;;;;;;;;;;18.30;63.80;;;;;;5038550;28;1380;-68
2024/01/06 13:12:13;;;;;;;;;;;18.40;63.90;;;;;;5037032;28;1980;-68
2024/01/06 13:14:38;;;;;;;;;;;18.40;63.90;;;;;;5045471;28;1287;-68
2024/01/06 13:17:05;;;;;;;;;;;18.40;63.90;;;;;;5046485;28;1591;-68
2024/01/06 13:19:30;;;;;;;;;;;18.40;63.90;;;;;;5040867;28;1502;-68
2024/01/06 13:21:56;;;;;;;;;;;18.40;63.80;;;;;;5038309;28;1537;-67
2024/01/06 13:24:21;;;;;;;;;;;18.40;63.80;;;;;;5038677;28;1697;-68
2024/01/06 13:26:47;;;;;;;;;;;18.40;63.80;;;;;;5039979;28;1035;-66
2024/01/06 13:29:13;;;;;;;;;;;18.40;63.80;;;;;;5035017;28;1836;-67
2024/01/06 13:31:39;;;;;;;;;;;18.40;63.80;;;;;;5036009;28;1926;-68
2024/01/06 13:34:05;;;;;;;;;;;18.40;63.80;;;;;;5038750;28;1635;-69
2024/01/06 13:36:31;;;;;;;;;;;18.40;63.80;;;;;;5037176;28;1317;-67
2024/01/06 13:38:56;;;;;;;;;;;18.40;63.70;;;;;;5039574;28;1479;-67
2024/01/06 13:41:22;;;;;;;;;;;18.40;63.70;;;;;;5037614;28;1593;-67
2024/01/06 13:43:48;;;;;;;;;;;18.40;63.70;;;;;;5042766;28;1374;-67
2024/01/06 13:46:14;;;;;;;;;;;18.40;63.70;;;;;;5039200;28;1386;-67
2024/01/06 13:48:40;;;;;;;;;;;18.40;63.70;;;;;;5038252;28;1537;-67
2024/01/06 13:51:06;;;;;;;;;;;18.40;63.70;;;;;;5038952;28;1964;-68
2024/01/06 13:53:31;;;;;;;;;;;18.40;63.70;;;;;;5038513;28;1402;-67
2024/01/06 13:55:57;;;;;;;;;;;18.40;63.70;;;;;;5042174;28;1442;-69
2024/01/06 13:58:22;;;;;;;;;;;18.40;63.70;;;;;;5042430;28;1365;-67
2024/01/06 14:00:48;;;;;;;;;;;18.40;63.80;;;;;;5040518;28;1364;-67
2024/01/06 14:03:13;;;;;;;;;;;18.40;63.80;;;;;;5039114;28;1413;-67
2024/01/06 14:05:39;;;;;;;;;;;18.40;63.80;;;;;;5038720;28;1362;-67
2024/01/06 14:08:05;;;;;;;;;;;18.40;63.90;;;;;;5038247;28;1317;-67
2024/01/06 14:10:31;;;;;;;;;;;18.40;63.90;;;;;;5033448;28;1984;-66
2024/01/06 14:12:57;;;;;;;;;;;18.30;63.90;;;;;;5036690;28;1472;-68
2024/01/06 14:15:22;;;;;;;;;;;18.30;63.90;;;;;;5036835;28;1246;-67
2024/01/06 14:17:51;;;;;;;;;;;18.30;63.90;;;;;;5037015;28;1757;-68
2024/01/06 14:20:20;;;;;;;;;;;18.30;64.00;;;;;;5068932;28;1409;-67
2024/01/06 14:22:46;;;;;;;;;;;18.30;64.00;;;;;;5020628;28;1949;-68